Terminal Aerodrome Forecast
Issued by NWS Des Moines, IA

Home | Current Version | Previous Version | Text Only | Print | Product List | Glossary On
Versions: 1 2 3 4 5 6 7 8 9 10 11 12 13 14 15 16 17 18 19 20 21 22 23 24 25 26 27 28 29 30
374
FTUS43 KDMX 110539
TAFDSM
TAF
KDSM 110539Z 1106/1206 11007KT P6SM OVC040
     FM110900 15009KT P6SM OVC012
     FM111500 18010KT P6SM OVC007
     FM111900 27011KT P6SM OVC011
     FM120100 32013G21KT P6SM BKN050=

USA.gov is the U.S. government's official web portal to all federal, state and local government web resources and services.